createdAt,value
2022-10-18T00:02:11.161Z,9.83
2022-10-18T00:04:33.145Z,11.17
2022-10-18T00:06:54.914Z,10.07
2022-10-18T00:09:17.205Z,10.83
2022-10-18T00:11:39.296Z,10.30
2022-10-18T00:14:01.206Z,9.90
2022-10-18T00:16:23.532Z,10.90
2022-10-18T00:18:45.731Z,10.40
2022-10-18T00:21:13.800Z,9.80
2022-10-18T00:23:36.370Z,9.33
2022-10-18T00:26:03.009Z,9.50
2022-10-18T00:28:24.858Z,9.93
2022-10-18T00:30:46.672Z,9.80
2022-10-18T00:33:08.460Z,9.57
2022-10-18T00:35:30.262Z,10.47
2022-10-18T00:37:52.081Z,9.27
2022-10-18T00:40:13.899Z,10.67
2022-10-18T00:42:37.876Z,9.50
2022-10-18T00:45:24.273Z,9.90
2022-10-18T00:47:57.831Z,10.73
2022-10-18T00:50:23.109Z,10.10
2022-10-18T00:52:54.355Z,10.97
2022-10-18T00:55:16.255Z,9.50
2022-10-18T00:57:42.650Z,9.87
2022-10-18T01:00:09.817Z,10.70
2022-10-18T01:02:32.853Z,10.60
2022-10-18T01:04:55.028Z,11.33
2022-10-18T01:08:00.218Z,10.67
2022-10-18T01:10:37.985Z,11.50
2022-10-18T01:13:25.973Z,10.97
2022-10-18T01:15:59.512Z,12.13
2022-10-18T01:18:35.926Z,13.10
2022-10-18T01:21:45.568Z,10.87
2022-10-18T01:24:30.887Z,11.33
2022-10-18T01:30:09.972Z,11.47
2022-10-18T01:32:42.412Z,10.80
2022-10-18T01:35:14.088Z,10.43
2022-10-18T01:37:38.865Z,10.57
2022-10-18T01:40:08.911Z,10.10
2022-10-18T01:42:31.883Z,9.87
2022-10-18T01:44:54.925Z,9.17
2022-10-18T01:47:19.227Z,10.17
2022-10-18T01:49:41.235Z,10.68
2022-10-18T01:52:03.423Z,10.13
2022-10-18T01:54:34.686Z,10.17
2022-10-18T01:57:16.521Z,9.97
2022-10-18T02:00:19.189Z,10.03
2022-10-18T02:03:10.927Z,10.50
2022-10-18T02:05:57.571Z,10.40
2022-10-18T02:08:28.433Z,10.60
2022-10-18T02:11:08.999Z,11.67
2022-10-18T02:13:40.304Z,11.97
2022-10-18T02:16:10.368Z,11.23
2022-10-18T02:18:41.485Z,11.50
2022-10-18T02:21:08.243Z,12.30
2022-10-18T02:23:32.544Z,12.40
2022-10-18T02:25:54.922Z,10.50
2022-10-18T02:28:16.901Z,11.13
2022-10-18T02:30:57.242Z,10.10
2022-10-18T02:33:33.245Z,11.60
2022-10-18T02:36:06.395Z,10.50
2022-10-18T02:38:31.633Z,10.67
2022-10-18T02:40:53.488Z,10.70
2022-10-18T02:43:15.236Z,11.23
2022-10-18T02:45:37.833Z,10.23
2022-10-18T02:47:59.703Z,10.60
2022-10-18T02:50:21.588Z,10.80
2022-10-18T02:52:43.417Z,10.10
2022-10-18T02:55:07.320Z,10.63
2022-10-18T02:57:30.545Z,11.00
2022-10-18T02:59:52.800Z,9.77
2022-10-18T03:02:14.577Z,9.60
2022-10-18T03:04:36.313Z,10.30
2022-10-18T03:06:58.090Z,11.60
2022-10-18T03:09:19.890Z,11.03
2022-10-18T03:11:41.669Z,9.80
2022-10-18T03:14:03.442Z,11.03
2022-10-18T03:16:25.495Z,12.10
2022-10-18T03:18:47.491Z,12.20
2022-10-18T03:21:10.478Z,12.27
2022-10-18T03:23:32.345Z,12.47
2022-10-18T03:25:54.105Z,12.00
2022-10-18T03:28:15.887Z,10.93
2022-10-18T03:30:38.955Z,10.77
2022-10-18T03:33:00.821Z,12.27
2022-10-18T03:35:22.789Z,12.17
2022-10-18T03:37:44.599Z,11.73
2022-10-18T03:40:07.759Z,12.70
2022-10-18T03:42:30.021Z,12.27
2022-10-18T03:44:52.161Z,11.93
2022-10-18T03:47:14.061Z,13.30
2022-10-18T03:49:35.883Z,12.57
2022-10-18T03:51:57.659Z,12.50
2022-10-18T03:54:19.678Z,13.50
2022-10-18T03:56:41.435Z,14.07
2022-10-18T03:59:04.530Z,15.07
2022-10-18T04:01:26.407Z,15.13
2022-10-18T04:03:48.312Z,14.23
2022-10-18T04:06:10.164Z,16.20
2022-10-18T04:08:31.958Z,16.10
2022-10-18T04:10:53.866Z,20.67
2022-10-18T04:13:15.668Z,25.13
2022-10-18T04:15:38.007Z,24.23
2022-10-18T04:18:01.121Z,22.17
2022-10-18T04:20:24.864Z,23.97
2022-10-18T04:22:51.144Z,23.92
2022-10-18T04:25:12.881Z,27.70
2022-10-18T04:27:35.229Z,28.80
2022-10-18T04:29:57.232Z,23.93
2022-10-18T04:32:18.987Z,26.90
2022-10-18T04:34:40.793Z,24.13
2022-10-18T04:37:02.615Z,23.23
2022-10-18T04:39:24.458Z,27.93
2022-10-18T04:41:46.195Z,24.37
2022-10-18T04:44:08.341Z,26.03
2022-10-18T04:46:30.108Z,33.97
2022-10-18T04:48:51.946Z,23.13
2022-10-18T04:51:13.773Z,32.73
2022-10-18T04:53:35.567Z,35.67
2022-10-18T04:55:57.384Z,28.70
2022-10-18T04:58:19.281Z,25.87
2022-10-18T05:00:42.134Z,28.37
2022-10-18T05:03:04.079Z,27.77
2022-10-18T05:05:37.911Z,27.57
2022-10-18T05:08:07.928Z,22.80
2022-10-18T05:10:29.886Z,24.73
2022-10-18T05:12:51.709Z,27.87
2022-10-18T05:15:13.472Z,24.97
2022-10-18T05:17:35.348Z,35.80
2022-10-18T05:19:57.076Z,23.27
2022-10-18T05:22:18.830Z,23.87
2022-10-18T05:24:40.535Z,23.43
2022-10-18T05:27:02.336Z,22.63
2022-10-18T05:29:24.860Z,23.80
2022-10-18T05:31:49.239Z,23.03
2022-10-18T05:34:11.040Z,22.92
2022-10-18T05:36:32.828Z,22.67
2022-10-18T05:38:56.256Z,24.30
2022-10-18T05:41:18.735Z,24.00
2022-10-18T05:43:41.159Z,22.27
2022-10-18T05:46:04.847Z,23.40
2022-10-18T05:48:26.691Z,21.98
2022-10-18T05:50:48.540Z,23.03
2022-10-18T05:53:12.349Z,23.27
2022-10-18T05:55:40.313Z,22.50
2022-10-18T05:58:03.210Z,21.73
2022-10-18T06:00:25.093Z,21.90
2022-10-18T06:02:46.947Z,22.83
2022-10-18T06:05:09.097Z,22.33
2022-10-18T06:07:31.351Z,22.23
2022-10-18T06:09:53.275Z,23.13
2022-10-18T06:12:15.107Z,22.73
2022-10-18T06:14:37.897Z,23.57
2022-10-18T06:16:59.674Z,22.70
2022-10-18T06:19:21.526Z,25.40
2022-10-18T06:21:44.319Z,24.20
2022-10-18T06:24:06.627Z,24.07
2022-10-18T06:26:28.847Z,22.63
2022-10-18T06:28:50.965Z,22.57
2022-10-18T06:31:14.946Z,25.13
2022-10-18T06:33:37.388Z,23.13
2022-10-18T06:36:06.871Z,22.53
2022-10-18T06:38:30.548Z,22.37
2022-10-18T06:40:53.723Z,23.85
2022-10-18T06:43:21.202Z,26.63
2022-10-18T06:45:43.467Z,22.77
2022-10-18T06:48:05.688Z,24.77
2022-10-18T06:50:27.643Z,28.67
2022-10-18T06:52:51.172Z,24.03
2022-10-18T06:55:13.103Z,21.23
2022-10-18T06:57:34.972Z,23.17
2022-10-18T06:59:57.005Z,24.97
2022-10-18T07:02:19.007Z,20.67
2022-10-18T07:04:40.831Z,20.40
2022-10-18T07:07:02.629Z,20.63
2022-10-18T07:09:24.479Z,22.30
2022-10-18T07:11:46.289Z,19.97
2022-10-18T07:14:09.560Z,22.33
2022-10-18T07:16:34.650Z,21.87
2022-10-18T07:18:56.808Z,22.10
2022-10-18T07:21:25.535Z,24.40
2022-10-18T07:23:48.202Z,20.10
2022-10-18T07:26:27.423Z,21.80
2022-10-18T07:28:57.989Z,20.67
2022-10-18T07:31:20.999Z,20.90
2022-10-18T07:33:45.545Z,19.30
2022-10-18T07:38:30.915Z,19.20
2022-10-18T07:40:58.575Z,19.63
2022-10-18T07:43:20.372Z,21.20
2022-10-18T07:45:53.031Z,18.60
2022-10-18T07:48:14.770Z,19.53
2022-10-18T07:50:36.707Z,19.07
2022-10-18T07:52:58.452Z,20.87
2022-10-18T07:55:20.267Z,18.90
2022-10-18T07:57:42.058Z,18.77
2022-10-18T08:00:04.702Z,19.63
2022-10-18T08:02:33.288Z,19.97
2022-10-18T08:04:55.155Z,18.60
2022-10-18T08:07:16.956Z,19.23
2022-10-18T08:09:39.338Z,20.30
2022-10-18T08:12:01.107Z,20.23
2022-10-18T08:14:22.994Z,21.43
2022-10-18T08:16:44.810Z,21.40
2022-10-18T08:19:06.641Z,22.00
2022-10-18T08:21:28.511Z,22.00
2022-10-18T08:23:50.524Z,21.97
2022-10-18T08:26:16.839Z,23.77
2022-10-18T08:28:39.338Z,25.07
2022-10-18T08:31:11.413Z,24.17
2022-10-18T08:33:35.776Z,21.93
2022-10-18T08:36:00.173Z,22.55
2022-10-18T08:38:21.947Z,22.27
2022-10-18T08:40:44.458Z,21.47
2022-10-18T08:43:21.988Z,20.73
2022-10-18T08:45:44.324Z,22.80
2022-10-18T08:48:08.541Z,21.23
2022-10-18T08:50:36.864Z,20.27
2022-10-18T08:53:19.810Z,19.57
2022-10-18T08:55:47.568Z,20.30
2022-10-18T08:58:26.797Z,20.13
2022-10-18T09:01:30.518Z,19.83
2022-10-18T09:04:23.249Z,19.43
2022-10-18T09:07:18.601Z,20.30
2022-10-18T09:10:18.508Z,21.15
2022-10-18T09:13:20.460Z,22.87
2022-10-18T09:16:02.938Z,17.90
2022-10-18T09:18:51.492Z,19.67
2022-10-18T09:21:29.838Z,18.70
2022-10-18T09:24:12.639Z,16.87
2022-10-18T09:26:47.337Z,20.43
2022-10-18T09:30:05.853Z,19.27
2022-10-18T09:32:45.717Z,19.00
2022-10-18T09:35:25.772Z,18.87
2022-10-18T09:37:49.349Z,17.40
2022-10-18T09:40:28.189Z,18.35
2022-10-18T09:43:06.292Z,16.97
2022-10-18T09:45:34.665Z,15.83
2022-10-18T09:48:13.175Z,16.27
2022-10-18T09:50:48.849Z,14.07
2022-10-18T09:53:15.380Z,13.13
2022-10-18T09:55:55.245Z,13.23
2022-10-18T09:58:20.442Z,13.27
2022-10-18T10:00:50.332Z,11.53
2022-10-18T10:03:14.844Z,9.13
2022-10-18T10:07:59.986Z,8.67
2022-10-18T10:10:25.891Z,7.30
2022-10-18T10:12:49.313Z,7.77
2022-10-18T10:15:23.259Z,7.67
2022-10-18T10:17:54.260Z,4.43
2022-10-18T10:20:23.495Z,5.20
2022-10-18T10:22:49.897Z,4.90
2022-10-18T10:25:30.846Z,4.50
2022-10-18T10:27:53.379Z,4.73
2022-10-18T10:30:38.288Z,4.07
2022-10-18T10:33:00.474Z,2.90
2022-10-18T10:35:55.554Z,3.70
2022-10-18T10:38:27.463Z,3.75
2022-10-18T10:40:50.843Z,4.77
2022-10-18T10:43:39.284Z,3.67
2022-10-18T10:46:18.929Z,7.00
2022-10-18T10:49:09.591Z,6.37
2022-10-18T10:51:40.242Z,5.45
2022-10-18T10:54:24.454Z,4.93
2022-10-18T10:57:12.690Z,4.50
2022-10-18T10:59:45.340Z,5.00
2022-10-18T11:02:19.300Z,6.03
2022-10-18T11:04:42.747Z,4.37
2022-10-18T11:07:11.413Z,4.70
2022-10-18T11:09:56.063Z,3.70
2022-10-18T11:12:37.849Z,4.03
2022-10-18T11:15:15.739Z,3.20
2022-10-18T11:18:15.789Z,2.20
2022-10-18T11:20:58.235Z,3.37
2022-10-18T11:23:21.769Z,4.47
2022-10-18T11:25:57.650Z,2.53
2022-10-18T11:29:13.785Z,4.45
2022-10-18T11:31:59.213Z,3.53
2022-10-18T11:34:20.930Z,3.80
2022-10-18T11:37:27.163Z,2.30
2022-10-18T11:40:22.763Z,1.95
2022-10-18T11:43:34.417Z,2.90
2022-10-18T11:46:27.826Z,2.40
2022-10-18T11:49:23.916Z,2.95
2022-10-18T11:52:23.959Z,2.60
2022-10-18T11:55:05.515Z,3.03
2022-10-18T11:58:13.299Z,3.80
2022-10-18T12:00:39.634Z,3.08
2022-10-18T12:03:04.388Z,3.45
2022-10-18T12:05:29.135Z,3.92
2022-10-18T12:08:13.633Z,3.88
2022-10-18T12:10:52.830Z,3.97
2022-10-18T12:14:03.734Z,3.70
2022-10-18T12:16:50.388Z,3.20
2022-10-18T12:19:27.040Z,2.50
2022-10-18T12:21:51.377Z,2.20
2022-10-18T12:24:20.691Z,1.75
2022-10-18T12:26:42.840Z,1.80
2022-10-18T12:29:39.642Z,2.13
2022-10-18T12:32:27.772Z,2.80
2022-10-18T12:34:58.060Z,2.08
2022-10-18T12:37:54.537Z,2.50
2022-10-18T12:40:48.602Z,2.22
2022-10-18T12:43:22.665Z,2.38
2022-10-18T12:45:55.400Z,2.63
2022-10-18T12:48:28.928Z,2.45
2022-10-18T12:51:19.381Z,2.80
2022-10-18T12:53:45.922Z,2.83
2022-10-18T12:56:29.717Z,2.75
2022-10-18T12:58:51.528Z,2.80
2022-10-18T13:01:13.421Z,2.42
2022-10-18T13:03:55.054Z,1.92
2022-10-18T13:06:17.079Z,2.42
2022-10-18T13:08:42.805Z,2.15
2022-10-18T13:11:10.714Z,2.03
2022-10-18T13:14:05.968Z,2.10
2022-10-18T13:16:40.941Z,2.50
2022-10-18T13:19:33.869Z,2.50
2022-10-18T13:22:52.773Z,2.63
2022-10-18T13:25:32.682Z,2.92
2022-10-18T13:28:16.429Z,2.05
2022-10-18T13:31:12.868Z,2.22
2022-10-18T13:33:40.088Z,2.42
2022-10-18T13:36:23.035Z,2.20
2022-10-18T13:38:57.744Z,3.38
2022-10-18T13:41:46.939Z,2.28
2022-10-18T13:44:39.883Z,2.53
2022-10-18T13:47:04.720Z,2.30
2022-10-18T13:49:38.481Z,2.15
2022-10-18T13:52:21.457Z,1.75
2022-10-18T13:54:51.033Z,1.88
2022-10-18T13:57:32.006Z,2.03
2022-10-18T14:00:31.416Z,1.75
2022-10-18T14:03:58.093Z,1.30
2022-10-18T14:06:29.814Z,1.63
2022-10-18T14:09:32.924Z,1.30
2022-10-18T14:12:35.399Z,1.40
2022-10-18T14:15:26.715Z,1.65
2022-10-18T14:17:56.447Z,1.75
2022-10-18T14:20:48.706Z,1.40
2022-10-18T14:23:19.856Z,1.88
2022-10-18T14:25:42.238Z,1.50
2022-10-18T14:28:12.865Z,1.30
2022-10-18T14:30:36.458Z,1.90
2022-10-18T14:32:59.589Z,1.60
2022-10-18T14:35:39.645Z,1.23
2022-10-18T14:38:02.525Z,1.50
2022-10-18T14:40:29.183Z,1.63
2022-10-18T14:42:50.966Z,1.60
2022-10-18T14:45:20.038Z,1.55
2022-10-18T14:47:41.855Z,1.73
2022-10-18T14:50:03.783Z,1.73
2022-10-18T14:52:35.616Z,1.90
2022-10-18T14:54:59.749Z,2.35
2022-10-18T14:57:36.313Z,1.95
2022-10-18T15:00:17.567Z,1.73
2022-10-18T15:02:39.892Z,1.42
2022-10-18T15:05:21.841Z,1.63
2022-10-18T15:07:45.081Z,1.63
2022-10-18T15:10:16.401Z,1.58
2022-10-18T15:13:08.337Z,1.45
2022-10-18T15:15:31.019Z,1.52
2022-10-18T15:17:54.139Z,1.90
2022-10-18T15:20:32.767Z,1.50
2022-10-18T15:23:15.048Z,1.40
2022-10-18T15:25:37.172Z,1.55
2022-10-18T15:28:01.350Z,1.53
2022-10-18T15:30:30.056Z,1.60
2022-10-18T15:33:04.253Z,1.63
2022-10-18T15:35:33.188Z,1.63
2022-10-18T15:37:58.899Z,1.43
2022-10-18T15:40:23.685Z,1.40
2022-10-18T15:42:46.160Z,1.40
2022-10-18T15:45:38.476Z,1.50
2022-10-18T15:48:06.412Z,1.40
2022-10-18T15:51:08.356Z,1.37
2022-10-18T15:53:54.758Z,1.40
2022-10-18T15:56:35.276Z,1.47
2022-10-18T15:59:00.918Z,1.20
2022-10-18T16:01:44.778Z,1.60
2022-10-18T16:04:20.237Z,1.20
2022-10-18T16:06:42.076Z,1.50
2022-10-18T16:09:04.112Z,2.53
2022-10-18T16:11:26.511Z,1.97
2022-10-18T16:13:49.333Z,1.43
2022-10-18T16:16:20.472Z,2.57
2022-10-18T16:18:42.278Z,1.23
2022-10-18T16:21:04.247Z,1.20
2022-10-18T16:23:30.794Z,1.50
2022-10-18T16:25:52.770Z,1.40
2022-10-18T16:28:18.128Z,1.90
2022-10-18T16:30:40.292Z,1.40
2022-10-18T16:33:02.090Z,2.63
2022-10-18T16:35:24.317Z,1.47
2022-10-18T16:37:46.109Z,2.07
2022-10-18T16:40:37.670Z,2.17
2022-10-18T16:43:02.897Z,2.25
2022-10-18T16:45:24.874Z,2.13
2022-10-18T16:47:46.724Z,2.03
2022-10-18T16:50:17.521Z,3.07
2022-10-18T16:52:39.486Z,2.67
2022-10-18T16:55:01.309Z,2.67
2022-10-18T16:57:23.267Z,3.90
2022-10-18T16:59:45.032Z,6.50
2022-10-18T17:02:09.261Z,7.60
2022-10-18T17:04:31.086Z,7.53
2022-10-18T17:06:57.626Z,14.33
2022-10-18T17:09:19.463Z,14.23
2022-10-18T17:11:41.955Z,18.83
2022-10-18T17:14:03.875Z,18.90
2022-10-18T17:16:35.512Z,23.87
2022-10-18T17:19:01.416Z,24.00
2022-10-18T17:21:26.021Z,24.93
2022-10-18T17:26:28.285Z,22.53
2022-10-18T17:28:52.609Z,20.57
2022-10-18T17:31:15.208Z,17.88
2022-10-18T17:33:37.616Z,18.37
2022-10-18T17:35:59.546Z,17.57
2022-10-18T17:38:21.339Z,19.70
2022-10-18T17:40:43.515Z,17.63
2022-10-18T17:43:05.274Z,11.90
2022-10-18T17:45:27.413Z,11.67
2022-10-18T17:47:49.444Z,11.70
2022-10-18T17:50:11.854Z,6.43
2022-10-18T17:52:33.752Z,5.07
2022-10-18T17:54:55.660Z,5.83
2022-10-18T17:57:18.647Z,4.10
2022-10-18T17:59:40.382Z,3.10
2022-10-18T18:02:02.255Z,2.90
2022-10-18T18:04:25.708Z,3.20
2022-10-18T18:06:49.051Z,2.93
2022-10-18T18:09:15.280Z,2.73
2022-10-18T18:11:40.093Z,3.63
2022-10-18T18:14:02.256Z,3.30
2022-10-18T18:16:27.865Z,2.83
2022-10-18T18:18:52.773Z,2.90
2022-10-18T18:21:14.808Z,3.00
2022-10-18T18:23:36.877Z,2.80
2022-10-18T18:25:59.946Z,2.87
2022-10-18T18:28:21.838Z,3.60
2022-10-18T18:30:43.766Z,3.27
2022-10-18T18:33:05.697Z,3.30
2022-10-18T18:35:27.578Z,2.90
2022-10-18T18:37:52.653Z,3.10
2022-10-18T18:40:14.423Z,3.20
2022-10-18T18:42:36.396Z,3.27
2022-10-18T18:44:58.294Z,3.73
2022-10-18T18:47:23.238Z,3.40
2022-10-18T18:49:45.133Z,3.53
2022-10-18T18:52:07.458Z,3.60
2022-10-18T18:54:30.491Z,3.30
2022-10-18T18:56:52.328Z,3.47
2022-10-18T18:59:15.309Z,3.40
2022-10-18T19:01:37.997Z,3.80
2022-10-18T19:04:00.691Z,3.90
2022-10-18T19:06:31.127Z,3.70
2022-10-18T19:09:00.154Z,3.77
2022-10-18T19:11:22.976Z,3.90
2022-10-18T19:13:45.762Z,3.13
2022-10-18T19:16:31.723Z,3.47
2022-10-18T19:19:05.230Z,2.87
2022-10-18T19:21:32.626Z,3.17
2022-10-18T19:23:56.116Z,3.20
2022-10-18T19:26:55.849Z,3.17
2022-10-18T19:29:27.803Z,3.20
2022-10-18T19:31:53.436Z,2.90
2022-10-18T19:34:16.573Z,3.40
2022-10-18T19:36:40.679Z,3.40
2022-10-18T19:39:03.681Z,3.50
2022-10-18T19:41:28.280Z,4.00
2022-10-18T19:46:13.274Z,3.17
2022-10-18T19:48:35.043Z,3.43
2022-10-18T19:50:57.652Z,3.27
2022-10-18T19:53:19.621Z,3.33
2022-10-18T19:55:41.464Z,4.10
2022-10-18T19:58:03.430Z,4.60
2022-10-18T20:00:25.291Z,4.17
2022-10-18T20:02:47.178Z,4.40
2022-10-18T20:05:09.658Z,5.87
2022-10-18T20:07:31.568Z,6.90
2022-10-18T20:09:53.384Z,5.43
2022-10-18T20:12:15.213Z,5.57
2022-10-18T20:14:36.986Z,5.60
2022-10-18T20:16:58.914Z,5.80
2022-10-18T20:19:20.765Z,6.20
2022-10-18T20:21:42.583Z,5.57
2022-10-18T20:24:06.133Z,5.57
2022-10-18T20:26:28.230Z,6.40
2022-10-18T20:28:59.812Z,10.67
2022-10-18T20:31:27.513Z,11.97
2022-10-18T20:33:59.869Z,7.97
2022-10-18T20:36:22.113Z,7.90
2022-10-18T20:38:46.923Z,6.40
2022-10-18T20:41:13.646Z,5.77
2022-10-18T20:43:36.158Z,5.87
2022-10-18T20:45:59.691Z,5.70
2022-10-18T20:48:21.708Z,5.68
2022-10-18T20:50:43.562Z,5.97
2022-10-18T20:53:05.401Z,5.67
2022-10-18T20:55:29.477Z,6.00
2022-10-18T20:57:51.334Z,5.70
2022-10-18T21:00:14.096Z,5.87
2022-10-18T21:02:35.892Z,5.87
2022-10-18T21:04:57.983Z,5.57
2022-10-18T21:07:19.840Z,5.10
2022-10-18T21:09:41.653Z,5.43
2022-10-18T21:12:03.717Z,5.13
2022-10-18T21:14:26.721Z,5.07
2022-10-18T21:16:50.036Z,4.87
2022-10-18T21:19:25.280Z,5.03
2022-10-18T21:21:50.616Z,4.80
2022-10-18T21:24:13.955Z,4.60
2022-10-18T21:26:37.022Z,5.33
2022-10-18T21:29:00.242Z,6.53
2022-10-18T21:31:28.560Z,6.17
2022-10-18T21:34:03.568Z,6.40
2022-10-18T21:36:29.811Z,6.57
2022-10-18T21:38:53.187Z,6.63
2022-10-18T21:41:17.961Z,6.93
2022-10-18T21:43:46.920Z,6.70
2022-10-18T21:46:10.268Z,6.33
2022-10-18T21:48:32.063Z,6.43
2022-10-18T21:50:54.170Z,6.47
2022-10-18T21:53:16.642Z,5.57
2022-10-18T21:55:38.475Z,6.50
2022-10-18T21:58:00.276Z,5.73
2022-10-18T22:00:22.113Z,6.97
2022-10-18T22:02:43.858Z,6.17
2022-10-18T22:05:08.357Z,5.63
2022-10-18T22:07:33.531Z,6.20
2022-10-18T22:09:55.610Z,7.47
2022-10-18T22:12:17.426Z,7.87
2022-10-18T22:14:39.234Z,8.30
2022-10-18T22:17:01.157Z,9.10
2022-10-18T22:19:22.963Z,9.03
2022-10-18T22:21:44.745Z,8.77
2022-10-18T22:24:09.029Z,8.13
2022-10-18T22:26:35.484Z,7.75
2022-10-18T22:29:04.589Z,7.17
2022-10-18T22:31:31.045Z,6.27
2022-10-18T22:34:00.278Z,4.90
2022-10-18T22:36:23.188Z,4.33
2022-10-18T22:38:44.930Z,5.07
2022-10-18T22:41:12.215Z,5.30
2022-10-18T22:43:35.237Z,5.30
2022-10-18T22:46:04.126Z,5.50
2022-10-18T22:48:25.943Z,6.80
2022-10-18T22:50:47.663Z,5.77
2022-10-18T22:53:09.487Z,6.33
2022-10-18T22:55:31.374Z,5.10
2022-10-18T22:57:56.206Z,5.87
2022-10-18T23:00:17.994Z,5.77
2022-10-18T23:02:39.913Z,5.60
2022-10-18T23:05:01.731Z,5.77
2022-10-18T23:07:23.603Z,4.97
2022-10-18T23:09:45.393Z,4.53
2022-10-18T23:12:07.227Z,4.80
2022-10-18T23:14:29.024Z,5.43
2022-10-18T23:16:50.840Z,5.50
2022-10-18T23:19:16.706Z,5.23
2022-10-18T23:21:38.529Z,6.57
2022-10-18T23:24:00.383Z,5.50
2022-10-18T23:26:27.843Z,6.40
2022-10-18T23:28:52.200Z,5.87
2022-10-18T23:31:24.388Z,5.57
2022-10-18T23:33:50.313Z,5.50
2022-10-18T23:36:12.631Z,5.00
2022-10-18T23:38:36.059Z,5.90
2022-10-18T23:40:58.400Z,5.60
2022-10-18T23:43:20.146Z,5.27
2022-10-18T23:45:42.478Z,5.47
2022-10-18T23:48:04.333Z,5.40
2022-10-18T23:50:26.106Z,5.50
2022-10-18T23:52:47.907Z,6.23
2022-10-18T23:55:09.739Z,5.40
2022-10-18T23:57:31.840Z,5.87
2022-10-18T23:59:53.880Z,5.80
